sensor_id;sensor_type;location;lat;lon;timestamp;pressure;altitude;pressure_sealevel;temperature;humidity
30897;BME280;64229;52.246;21.054;2023-07-09T00:01:57;100934.50;;;19.63;54.91
30897;BME280;64229;52.246;21.054;2023-07-09T00:04:22;100937.38;;;19.58;55.24
30897;BME280;64229;52.246;21.054;2023-07-09T00:06:48;100914.44;;;19.42;55.61
30897;BME280;64229;52.246;21.054;2023-07-09T00:09:15;100922.56;;;19.42;55.79
30897;BME280;64229;52.246;21.054;2023-07-09T00:11:42;100936.78;;;19.47;55.98
30897;BME280;64229;52.246;21.054;2023-07-09T00:14:09;100922.69;;;19.36;56.25
30897;BME280;64229;52.246;21.054;2023-07-09T00:16:35;100939.59;;;19.42;56.32
30897;BME280;64229;52.246;21.054;2023-07-09T00:19:03;100940.22;;;19.39;56.49
30897;BME280;64229;52.246;21.054;2023-07-09T00:21:28;100946.75;;;19.38;56.56
30897;BME280;64229;52.246;21.054;2023-07-09T00:23:59;100939.53;;;19.33;56.69
30897;BME280;64229;52.246;21.054;2023-07-09T00:26:29;100929.16;;;19.27;56.99
30897;BME280;64229;52.246;21.054;2023-07-09T00:28:55;100936.47;;;19.26;57.20
30897;BME280;64229;52.246;21.054;2023-07-09T00:31:20;100938.97;;;19.23;57.43
30897;BME280;64229;52.246;21.054;2023-07-09T00:33:48;100939.41;;;19.16;57.59
30897;BME280;64229;52.246;21.054;2023-07-09T00:36:26;100935.41;;;19.14;57.49
30897;BME280;64229;52.246;21.054;2023-07-09T00:38:52;100933.44;;;19.05;57.50
30897;BME280;64229;52.246;21.054;2023-07-09T00:41:19;100940.94;;;19.08;58.09
30897;BME280;64229;52.246;21.054;2023-07-09T00:43:46;100941.88;;;19.04;57.87
30897;BME280;64229;52.246;21.054;2023-07-09T00:48:57;100947.06;;;19.00;58.30
30897;BME280;64229;52.246;21.054;2023-07-09T00:51:26;100945.16;;;19.01;58.41
30897;BME280;64229;52.246;21.054;2023-07-09T00:53:55;100930.75;;;18.92;58.45
30897;BME280;64229;52.246;21.054;2023-07-09T00:56:34;100945.66;;;19.03;58.45
30897;BME280;64229;52.246;21.054;2023-07-09T00:59:05;100943.25;;;19.01;58.58
30897;BME280;64229;52.246;21.054;2023-07-09T01:01:34;100943.88;;;18.98;58.75
30897;BME280;64229;52.246;21.054;2023-07-09T01:04:00;100941.00;;;18.95;58.74
30897;BME280;64229;52.246;21.054;2023-07-09T01:06:32;100950.50;;;18.92;58.59
30897;BME280;64229;52.246;21.054;2023-07-09T01:09:01;100949.81;;;18.87;58.91
30897;BME280;64229;52.246;21.054;2023-07-09T01:11:27;100939.09;;;18.82;59.03
30897;BME280;64229;52.246;21.054;2023-07-09T01:13:59;100944.00;;;18.79;59.19
30897;BME280;64229;52.246;21.054;2023-07-09T01:16:29;100954.25;;;18.83;59.15
30897;BME280;64229;52.246;21.054;2023-07-09T01:18:55;100948.84;;;18.83;59.47
30897;BME280;64229;52.246;21.054;2023-07-09T01:21:20;100941.94;;;18.76;59.38
30897;BME280;64229;52.246;21.054;2023-07-09T01:23:47;100951.81;;;18.81;59.36
30897;BME280;64229;52.246;21.054;2023-07-09T01:26:17;100950.03;;;18.76;59.77
30897;BME280;64229;52.246;21.054;2023-07-09T01:28:42;100957.66;;;18.74;59.84
30897;BME280;64229;52.246;21.054;2023-07-09T01:31:12;100953.66;;;18.72;60.02
30897;BME280;64229;52.246;21.054;2023-07-09T01:33:39;100954.06;;;18.65;60.00
30897;BME280;64229;52.246;21.054;2023-07-09T01:36:07;100951.72;;;18.59;60.20
30897;BME280;64229;52.246;21.054;2023-07-09T01:38:33;100949.13;;;18.54;60.56
30897;BME280;64229;52.246;21.054;2023-07-09T01:40:59;100957.84;;;18.50;60.81
30897;BME280;64229;52.246;21.054;2023-07-09T01:43:25;100952.25;;;18.47;60.80
30897;BME280;64229;52.246;21.054;2023-07-09T01:45:51;100950.94;;;18.44;60.94
30897;BME280;64229;52.246;21.054;2023-07-09T01:48:17;100943.44;;;18.41;61.30
30897;BME280;64229;52.246;21.054;2023-07-09T01:50:46;100956.16;;;18.41;61.55
30897;BME280;64229;52.246;21.054;2023-07-09T01:53:16;100953.16;;;18.42;61.46
30897;BME280;64229;52.246;21.054;2023-07-09T01:55:42;100950.22;;;18.39;61.84
30897;BME280;64229;52.246;21.054;2023-07-09T01:58:08;100951.16;;;18.34;61.77
30897;BME280;64229;52.246;21.054;2023-07-09T02:00:34;100958.53;;;18.29;61.98
30897;BME280;64229;52.246;21.054;2023-07-09T02:03:00;100946.53;;;18.21;62.09
30897;BME280;64229;52.246;21.054;2023-07-09T02:05:30;100954.66;;;18.21;62.21
30897;BME280;64229;52.246;21.054;2023-07-09T02:07:56;100955.53;;;18.16;62.59
30897;BME280;64229;52.246;21.054;2023-07-09T02:10:22;100952.63;;;18.13;62.50
30897;BME280;64229;52.246;21.054;2023-07-09T02:12:47;100966.63;;;18.15;62.67
30897;BME280;64229;52.246;21.054;2023-07-09T02:15:13;100962.94;;;18.11;62.89
30897;BME280;64229;52.246;21.054;2023-07-09T02:17:39;100960.53;;;18.09;63.01
30897;BME280;64229;52.246;21.054;2023-07-09T02:20:06;100957.63;;;18.06;63.10
30897;BME280;64229;52.246;21.054;2023-07-09T02:22:33;100943.00;;;17.93;63.20
30897;BME280;64229;52.246;21.054;2023-07-09T02:24:58;100958.09;;;17.94;63.29
30897;BME280;64229;52.246;21.054;2023-07-09T02:27:23;100962.81;;;17.88;63.67
30897;BME280;64229;52.246;21.054;2023-07-09T02:29:49;100959.88;;;17.85;64.04
30897;BME280;64229;52.246;21.054;2023-07-09T02:32:22;100964.59;;;17.79;64.22
30897;BME280;64229;52.246;21.054;2023-07-09T02:34:48;100960.28;;;17.78;64.31
30897;BME280;64229;52.246;21.054;2023-07-09T02:37:19;100954.97;;;17.73;64.50
30897;BME280;64229;52.246;21.054;2023-07-09T02:39:44;100959.84;;;17.71;64.63
30897;BME280;64229;52.246;21.054;2023-07-09T02:42:11;100957.16;;;17.71;64.86
30897;BME280;64229;52.246;21.054;2023-07-09T02:44:37;100956.13;;;17.67;64.91
30897;BME280;64229;52.246;21.054;2023-07-09T02:47:02;100965.59;;;17.64;65.06
30897;BME280;64229;52.246;21.054;2023-07-09T02:49:28;100970.78;;;17.61;65.68
30897;BME280;64229;52.246;21.054;2023-07-09T02:51:53;100966.19;;;17.61;65.58
30897;BME280;64229;52.246;21.054;2023-07-09T02:54:18;100969.19;;;17.60;65.60
30897;BME280;64229;52.246;21.054;2023-07-09T02:56:44;100961.38;;;17.58;65.75
30897;BME280;64229;52.246;21.054;2023-07-09T02:59:09;100964.69;;;17.55;65.79
30897;BME280;64229;52.246;21.054;2023-07-09T03:01:34;100967.16;;;17.52;66.10
30897;BME280;64229;52.246;21.054;2023-07-09T03:04:01;100961.56;;;17.48;66.13
30897;BME280;64229;52.246;21.054;2023-07-09T03:06:27;100971.56;;;17.48;66.22
30897;BME280;64229;52.246;21.054;2023-07-09T03:08:52;100967.81;;;17.44;66.21
30897;BME280;64229;52.246;21.054;2023-07-09T03:11:19;100978.59;;;17.44;66.43
30897;BME280;64229;52.246;21.054;2023-07-09T03:13:46;100980.81;;;17.42;66.53
30897;BME280;64229;52.246;21.054;2023-07-09T03:16:12;100980.00;;;17.41;66.79
30897;BME280;64229;52.246;21.054;2023-07-09T03:18:38;100977.91;;;17.38;66.93
30897;BME280;64229;52.246;21.054;2023-07-09T03:21:03;100976.31;;;17.37;66.95
30897;BME280;64229;52.246;21.054;2023-07-09T03:23:29;100973.59;;;17.37;66.97
30897;BME280;64229;52.246;21.054;2023-07-09T03:25:55;100983.31;;;17.38;67.12
30897;BME280;64229;52.246;21.054;2023-07-09T03:28:21;100985.78;;;17.34;67.10
30897;BME280;64229;52.246;21.054;2023-07-09T03:30:47;100990.09;;;17.35;67.28
30897;BME280;64229;52.246;21.054;2023-07-09T03:33:15;100991.19;;;17.34;67.43
30897;BME280;64229;52.246;21.054;2023-07-09T03:35:40;100977.84;;;17.24;67.41
30897;BME280;64229;52.246;21.054;2023-07-09T03:38:07;100990.16;;;17.30;67.48
30897;BME280;64229;52.246;21.054;2023-07-09T03:40:33;100992.13;;;17.25;67.72
30897;BME280;64229;52.246;21.054;2023-07-09T03:42:59;100989.50;;;17.20;67.65
30897;BME280;64229;52.246;21.054;2023-07-09T03:45:25;101007.56;;;17.19;67.86
30897;BME280;64229;52.246;21.054;2023-07-09T03:47:50;100986.44;;;17.08;68.35
30897;BME280;64229;52.246;21.054;2023-07-09T03:50:16;101002.19;;;17.19;68.31
30897;BME280;64229;52.246;21.054;2023-07-09T03:52:41;101001.38;;;17.19;68.23
30897;BME280;64229;52.246;21.054;2023-07-09T03:55:07;100993.06;;;17.15;68.42
30897;BME280;64229;52.246;21.054;2023-07-09T03:57:33;101004.03;;;17.24;68.24
30897;BME280;64229;52.246;21.054;2023-07-09T03:59:58;100991.63;;;17.23;68.11
30897;BME280;64229;52.246;21.054;2023-07-09T04:02:24;100999.13;;;17.26;68.13
30897;BME280;64229;52.246;21.054;2023-07-09T04:04:49;101000.44;;;17.28;67.98
30897;BME280;64229;52.246;21.054;2023-07-09T04:07:15;101000.44;;;17.28;67.85
30897;BME280;64229;52.246;21.054;2023-07-09T04:09:41;101008.22;;;17.30;67.87
30897;BME280;64229;52.246;21.054;2023-07-09T04:12:07;100996.34;;;17.31;67.71
30897;BME280;64229;52.246;21.054;2023-07-09T04:14:33;101009.47;;;17.38;67.71
30897;BME280;64229;52.246;21.054;2023-07-09T04:16:59;101004.59;;;17.40;67.43
30897;BME280;64229;52.246;21.054;2023-07-09T04:19:24;101004.59;;;17.40;67.30
30897;BME280;64229;52.246;21.054;2023-07-09T04:21:49;101005.38;;;17.40;67.38
30897;BME280;64229;52.246;21.054;2023-07-09T04:24:17;101011.53;;;17.46;67.30
30897;BME280;64229;52.246;21.054;2023-07-09T04:26:42;101017.44;;;17.48;67.11
30897;BME280;64229;52.246;21.054;2023-07-09T04:29:08;101012.53;;;17.50;66.85
30897;BME280;64229;52.246;21.054;2023-07-09T04:31:33;101006.03;;;17.51;66.92
30897;BME280;64229;52.246;21.054;2023-07-09T04:33:58;101012.47;;;17.55;66.66
30897;BME280;64229;52.246;21.054;2023-07-09T04:36:24;101009.97;;;17.58;66.51
30897;BME280;64229;52.246;21.054;2023-07-09T04:38:51;101015.56;;;17.62;66.21
30897;BME280;64229;52.246;21.054;2023-07-09T04:41:16;101030.63;;;17.68;66.18
30897;BME280;64229;52.246;21.054;2023-07-09T04:43:41;101024.66;;;17.71;66.01
30897;BME280;64229;52.246;21.054;2023-07-09T04:46:07;101019.97;;;17.77;65.85
30897;BME280;64229;52.246;21.054;2023-07-09T04:48:32;101025.59;;;17.80;65.84
30897;BME280;64229;52.246;21.054;2023-07-09T04:50:57;101023.88;;;17.84;65.83
30897;BME280;64229;52.246;21.054;2023-07-09T04:53:24;101025.72;;;17.89;65.62
30897;BME280;64229;52.246;21.054;2023-07-09T04:55:49;101022.13;;;17.93;64.96
30897;BME280;64229;52.246;21.054;2023-07-09T04:58:15;101027.44;;;17.99;65.13
30897;BME280;64229;52.246;21.054;2023-07-09T05:00:41;101020.16;;;17.99;65.01
30897;BME280;64229;52.246;21.054;2023-07-09T05:03:07;101005.84;;;17.99;64.88
30897;BME280;64229;52.246;21.054;2023-07-09T05:05:32;101022.56;;;18.14;64.44
30897;BME280;64229;52.246;21.054;2023-07-09T05:07:58;101024.41;;;18.19;64.40
30897;BME280;64229;52.246;21.054;2023-07-09T05:10:23;101024.59;;;18.23;64.47
30897;BME280;64229;52.246;21.054;2023-07-09T05:12:54;101015.69;;;18.22;64.11
30897;BME280;64229;52.246;21.054;2023-07-09T05:15:21;101021.72;;;18.33;63.85
30897;BME280;64229;52.246;21.054;2023-07-09T05:17:47;101036.94;;;18.42;63.66
30897;BME280;64229;52.246;21.054;2023-07-09T05:20:14;101030.94;;;18.45;63.57
30897;BME280;64229;52.246;21.054;2023-07-09T05:22:39;101034.84;;;18.53;63.53
30897;BME280;64229;52.246;21.054;2023-07-09T05:25:05;101035.34;;;18.55;63.50
30897;BME280;64229;52.246;21.054;2023-07-09T05:27:30;101048.16;;;18.63;63.10
30897;BME280;64229;52.246;21.054;2023-07-09T05:29:55;101044.88;;;18.66;63.13
30897;BME280;64229;52.246;21.054;2023-07-09T05:32:20;101048.56;;;18.70;63.12
30897;BME280;64229;52.246;21.054;2023-07-09T05:34:46;101051.69;;;18.77;62.86
30897;BME280;64229;52.246;21.054;2023-07-09T05:37:11;101045.97;;;18.79;62.41
30897;BME280;64229;52.246;21.054;2023-07-09T05:39:36;101049.97;;;18.82;62.34
30897;BME280;64229;52.246;21.054;2023-07-09T05:42:02;101042.69;;;18.82;61.99
30897;BME280;64229;52.246;21.054;2023-07-09T05:44:27;101037.97;;;18.88;61.99
30897;BME280;64229;52.246;21.054;2023-07-09T05:46:52;101056.69;;;18.98;61.45
30897;BME280;64229;52.246;21.054;2023-07-09T05:49:17;101043.03;;;19.03;60.95
30897;BME280;64229;52.246;21.054;2023-07-09T05:51:43;101044.25;;;19.11;60.71
30897;BME280;64229;52.246;21.054;2023-07-09T05:54:08;101047.34;;;19.18;60.34
30897;BME280;64229;52.246;21.054;2023-07-09T05:56:33;101044.81;;;19.21;60.05
30897;BME280;64229;52.246;21.054;2023-07-09T05:58:59;101047.75;;;19.25;60.08
30897;BME280;64229;52.246;21.054;2023-07-09T06:01:24;101048.41;;;19.30;59.53
30897;BME280;64229;52.246;21.054;2023-07-09T06:03:50;101058.84;;;19.37;59.34
30897;BME280;64229;52.246;21.054;2023-07-09T06:06:15;101057.59;;;19.43;59.18
30897;BME280;64229;52.246;21.054;2023-07-09T06:08:41;101058.78;;;19.51;59.27
30897;BME280;64229;52.246;21.054;2023-07-09T06:11:06;101057.28;;;19.58;59.04
30897;BME280;64229;52.246;21.054;2023-07-09T06:13:32;101037.31;;;19.54;58.77
30897;BME280;64229;52.246;21.054;2023-07-09T06:15:58;101060.56;;;19.69;58.23
30897;BME280;64229;52.246;21.054;2023-07-09T06:18:25;101041.78;;;19.73;57.85
30897;BME280;64229;52.246;21.054;2023-07-09T06:20:56;101039.69;;;19.70;57.76
30897;BME280;64229;52.246;21.054;2023-07-09T06:23:21;101059.06;;;19.85;57.60
30897;BME280;64229;52.246;21.054;2023-07-09T06:25:47;101054.34;;;19.91;57.46
30897;BME280;64229;52.246;21.054;2023-07-09T06:28:15;101053.63;;;19.99;57.26
30897;BME280;64229;52.246;21.054;2023-07-09T06:30:40;101056.66;;;20.06;57.02
30897;BME280;64229;52.246;21.054;2023-07-09T06:33:05;101055.44;;;20.12;57.23
30897;BME280;64229;52.246;21.054;2023-07-09T06:35:31;101055.78;;;20.19;56.78
30897;BME280;64229;52.246;21.054;2023-07-09T06:37:57;101051.53;;;20.27;56.35
30897;BME280;64229;52.246;21.054;2023-07-09T06:40:22;101065.25;;;20.31;55.83
30897;BME280;64229;52.246;21.054;2023-07-09T06:42:49;101065.94;;;20.36;55.80
30897;BME280;64229;52.246;21.054;2023-07-09T06:45:15;101066.00;;;20.45;55.50
30897;BME280;64229;52.246;21.054;2023-07-09T06:47:40;101061.75;;;20.53;55.23
30897;BME280;64229;52.246;21.054;2023-07-09T06:50:06;101064.31;;;20.58;55.00
30897;BME280;64229;52.246;21.054;2023-07-09T06:52:31;101069.13;;;20.69;54.58
30897;BME280;64229;52.246;21.054;2023-07-09T06:54:56;101071.22;;;20.72;54.71
30897;BME280;64229;52.246;21.054;2023-07-09T06:57:22;101062.78;;;20.74;54.44
30897;BME280;64229;52.246;21.054;2023-07-09T06:59:47;101068.41;;;20.86;53.98
30897;BME280;64229;52.246;21.054;2023-07-09T07:02:12;101067.94;;;20.93;53.88
30897;BME280;64229;52.246;21.054;2023-07-09T07:04:37;101075.78;;;21.03;53.50
30897;BME280;64229;52.246;21.054;2023-07-09T07:07:03;101062.56;;;21.10;53.41
30897;BME280;64229;52.246;21.054;2023-07-09T07:09:28;101055.22;;;21.11;53.20
30897;BME280;64229;52.246;21.054;2023-07-09T07:11:54;101073.31;;;21.32;52.88
30897;BME280;64229;52.246;21.054;2023-07-09T07:14:19;101073.16;;;21.46;52.35
30897;BME280;64229;52.246;21.054;2023-07-09T07:16:44;101082.28;;;21.67;52.29
30897;BME280;64229;52.246;21.054;2023-07-09T07:19:09;101077.28;;;22.04;50.77
30897;BME280;64229;52.246;21.054;2023-07-09T07:21:35;101081.09;;;22.76;48.57
30897;BME280;64229;52.246;21.054;2023-07-09T07:24:00;101073.59;;;23.53;46.80
30897;BME280;64229;52.246;21.054;2023-07-09T07:26:25;101079.75;;;24.37;45.14
30897;BME280;64229;52.246;21.054;2023-07-09T07:28:50;101080.91;;;25.09;42.39
30897;BME280;64229;52.246;21.054;2023-07-09T07:31:16;101074.56;;;25.85;41.42
30897;BME280;64229;52.246;21.054;2023-07-09T07:33:42;101068.75;;;26.46;40.38
30897;BME280;64229;52.246;21.054;2023-07-09T07:36:08;101070.50;;;27.02;38.30
30897;BME280;64229;52.246;21.054;2023-07-09T07:38:34;101073.66;;;27.58;37.08
30897;BME280;64229;52.246;21.054;2023-07-09T07:41:00;101065.44;;;27.97;35.65
30897;BME280;64229;52.246;21.054;2023-07-09T07:43:25;101059.94;;;28.39;34.87
30897;BME280;64229;52.246;21.054;2023-07-09T07:45:51;101061.56;;;28.70;34.08
30897;BME280;64229;52.246;21.054;2023-07-09T07:48:16;101062.03;;;28.99;33.32
30897;BME280;64229;52.246;21.054;2023-07-09T07:50:41;101058.91;;;29.27;33.02
30897;BME280;64229;52.246;21.054;2023-07-09T07:53:07;101059.16;;;29.78;32.04
30897;BME280;64229;52.246;21.054;2023-07-09T07:55:34;101058.56;;;29.99;30.91
30897;BME280;64229;52.246;21.054;2023-07-09T07:58:00;101060.94;;;30.41;30.88
30897;BME280;64229;52.246;21.054;2023-07-09T08:00:28;101061.63;;;30.75;30.81
30897;BME280;64229;52.246;21.054;2023-07-09T08:02:53;101060.53;;;30.94;29.51
30897;BME280;64229;52.246;21.054;2023-07-09T08:05:18;101068.59;;;31.24;29.47
30897;BME280;64229;52.246;21.054;2023-07-09T08:07:44;101058.13;;;31.62;29.44
30897;BME280;64229;52.246;21.054;2023-07-09T08:10:10;101056.25;;;31.91;28.37
30897;BME280;64229;52.246;21.054;2023-07-09T08:12:37;101062.19;;;32.21;27.93
30897;BME280;64229;52.246;21.054;2023-07-09T08:15:02;101058.28;;;32.47;27.68
30897;BME280;64229;52.246;21.054;2023-07-09T08:17:27;101058.28;;;32.65;26.51
30897;BME280;64229;52.246;21.054;2023-07-09T08:19:53;101064.16;;;32.92;26.34
30897;BME280;64229;52.246;21.054;2023-07-09T08:22:20;101065.63;;;33.32;25.84
30897;BME280;64229;52.246;21.054;2023-07-09T08:24:46;101059.25;;;33.46;25.33
30897;BME280;64229;52.246;21.054;2023-07-09T08:27:12;101069.09;;;33.61;25.19
30897;BME280;64229;52.246;21.054;2023-07-09T08:29:37;101063.69;;;34.06;23.79
30897;BME280;64229;52.246;21.054;2023-07-09T08:32:03;101060.50;;;34.08;23.34
30897;BME280;64229;52.246;21.054;2023-07-09T08:34:29;101066.09;;;34.01;23.90
30897;BME280;64229;52.246;21.054;2023-07-09T08:36:54;101056.91;;;34.11;23.81
30897;BME280;64229;52.246;21.054;2023-07-09T08:39:20;101053.66;;;34.23;23.38
30897;BME280;64229;52.246;21.054;2023-07-09T08:41:49;101057.91;;;34.38;23.46
30897;BME280;64229;52.246;21.054;2023-07-09T08:44:34;101059.72;;;34.59;22.87
30897;BME280;64229;52.246;21.054;2023-07-09T08:47:33;101057.50;;;34.81;22.79
30897;BME280;64229;52.246;21.054;2023-07-09T08:52:33;101056.16;;;35.64;20.41
30897;BME280;64229;52.246;21.054;2023-07-09T08:55:05;101055.25;;;35.41;20.45
30897;BME280;64229;52.246;21.054;2023-07-09T08:57:37;101051.72;;;35.36;21.01
30897;BME280;64229;52.246;21.054;2023-07-09T09:00:11;101054.50;;;35.36;21.20
30897;BME280;64229;52.246;21.054;2023-07-09T09:02:48;101040.47;;;35.78;20.60
30897;BME280;64229;52.246;21.054;2023-07-09T09:05:20;101040.00;;;35.83;19.74
30897;BME280;64229;52.246;21.054;2023-07-09T09:07:51;101054.38;;;35.78;19.96
30897;BME280;64229;52.246;21.054;2023-07-09T09:10:27;101053.63;;;35.74;20.36
30897;BME280;64229;52.246;21.054;2023-07-09T09:13:14;101060.34;;;35.76;21.15
30897;BME280;64229;52.246;21.054;2023-07-09T09:15:43;101052.94;;;35.66;21.47
30897;BME280;64229;52.246;21.054;2023-07-09T09:18:25;101052.94;;;35.66;20.97
30897;BME280;64229;52.246;21.054;2023-07-09T09:21:24;101050.72;;;35.84;19.76
30897;BME280;64229;52.246;21.054;2023-07-09T09:23:52;101045.94;;;35.85;19.34
30897;BME280;64229;52.246;21.054;2023-07-09T09:28:49;101044.09;;;36.02;19.68
30897;BME280;64229;52.246;21.054;2023-07-09T09:31:16;101049.66;;;36.02;18.46
30897;BME280;64229;52.246;21.054;2023-07-09T09:33:44;101053.91;;;36.33;18.95
30897;BME280;64229;52.246;21.054;2023-07-09T09:36:22;101047.81;;;36.18;18.01
30897;BME280;64229;52.246;21.054;2023-07-09T09:38:48;101045.31;;;36.01;18.89
30897;BME280;64229;52.246;21.054;2023-07-09T09:41:21;101050.56;;;35.95;18.25
30897;BME280;64229;52.246;21.054;2023-07-09T09:43:48;101044.59;;;35.97;18.68
30897;BME280;64229;52.246;21.054;2023-07-09T09:46:21;101049.72;;;36.21;18.37
30897;BME280;64229;52.246;21.054;2023-07-09T09:48:49;101043.28;;;36.28;17.93
30897;BME280;64229;52.246;21.054;2023-07-09T09:51:17;101040.00;;;36.33;18.84
30897;BME280;64229;52.246;21.054;2023-07-09T09:53:57;101048.78;;;36.32;17.74
30897;BME280;64229;52.246;21.054;2023-07-09T09:56:34;101042.91;;;36.26;18.70
30897;BME280;64229;52.246;21.054;2023-07-09T09:59:01;101051.38;;;35.92;18.62
30897;BME280;64229;52.246;21.054;2023-07-09T10:01:32;101039.50;;;36.15;18.71
30897;BME280;64229;52.246;21.054;2023-07-09T10:04:01;101044.28;;;35.91;18.83
30897;BME280;64229;52.246;21.054;2023-07-09T10:06:37;101050.09;;;35.73;19.33
30897;BME280;64229;52.246;21.054;2023-07-09T10:17:00;101025.16;;;35.39;19.23
30897;BME280;64229;52.246;21.054;2023-07-09T10:19:57;101033.72;;;35.18;19.23
30897;BME280;64229;52.246;21.054;2023-07-09T10:22:36;101030.00;;;34.60;20.21
30897;BME280;64229;52.246;21.054;2023-07-09T10:25:21;101033.97;;;34.14;20.69
30897;BME280;64229;52.246;21.054;2023-07-09T10:30:35;101026.72;;;32.56;21.63
30897;BME280;64229;52.246;21.054;2023-07-09T10:33:11;101031.00;;;31.82;22.18
30897;BME280;64229;52.246;21.054;2023-07-09T10:35:48;101019.41;;;31.30;23.70
30897;BME280;64229;52.246;21.054;2023-07-09T10:41:11;101019.69;;;30.48;24.96
30897;BME280;64229;52.246;21.054;2023-07-09T10:43:43;101021.84;;;30.25;26.03
30897;BME280;64229;52.246;21.054;2023-07-09T10:46:15;101014.97;;;30.05;26.69
30897;BME280;64229;52.246;21.054;2023-07-09T10:48:44;101017.19;;;29.88;26.64
30897;BME280;64229;52.246;21.054;2023-07-09T10:51:27;101020.03;;;29.58;27.16
30897;BME280;64229;52.246;21.054;2023-07-09T10:53:57;100994.53;;;29.31;26.31
30897;BME280;64229;52.246;21.054;2023-07-09T10:56:27;101004.56;;;29.17;26.74
30897;BME280;64229;52.246;21.054;2023-07-09T10:59:22;100998.97;;;29.09;27.92
30897;BME280;64229;52.246;21.054;2023-07-09T11:01:57;101010.66;;;29.03;27.24
30897;BME280;64229;52.246;21.054;2023-07-09T11:04:40;100998.25;;;28.86;28.06
30897;BME280;64229;52.246;21.054;2023-07-09T11:07:10;100992.28;;;28.54;27.63
30897;BME280;64229;52.246;21.054;2023-07-09T11:09:41;100996.03;;;28.42;28.41
30897;BME280;64229;52.246;21.054;2023-07-09T11:12:22;101002.94;;;28.33;27.91
30897;BME280;64229;52.246;21.054;2023-07-09T11:14:56;100992.34;;;28.08;27.93
30897;BME280;64229;52.246;21.054;2023-07-09T11:17:26;100992.66;;;28.07;27.37
30897;BME280;64229;52.246;21.054;2023-07-09T11:19:58;100991.84;;;28.03;28.43
30897;BME280;64229;52.246;21.054;2023-07-09T11:22:35;101000.44;;;28.01;27.83
30897;BME280;64229;52.246;21.054;2023-07-09T11:25:12;101000.66;;;27.92;28.40
30897;BME280;64229;52.246;21.054;2023-07-09T11:28:05;101011.34;;;27.98;28.13
30897;BME280;64229;52.246;21.054;2023-07-09T11:30:31;101001.19;;;27.98;27.64
30897;BME280;64229;52.246;21.054;2023-07-09T11:33:17;100994.22;;;28.04;27.05
30897;BME280;64229;52.246;21.054;2023-07-09T11:35:49;100993.22;;;27.93;27.17
30897;BME280;64229;52.246;21.054;2023-07-09T11:38:24;100989.50;;;27.82;27.26
30897;BME280;64229;52.246;21.054;2023-07-09T11:40:52;100988.44;;;27.86;28.69
30897;BME280;64229;52.246;21.054;2023-07-09T11:43:34;100990.81;;;27.88;27.50
30897;BME280;64229;52.246;21.054;2023-07-09T11:46:10;100988.44;;;27.86;27.84
30897;BME280;64229;52.246;21.054;2023-07-09T11:48:39;100990.72;;;27.84;27.22
30897;BME280;64229;52.246;21.054;2023-07-09T11:51:14;100985.97;;;27.81;27.32
30897;BME280;64229;52.246;21.054;2023-07-09T11:53:51;100981.59;;;27.77;27.05
30897;BME280;64229;52.246;21.054;2023-07-09T11:56:21;100981.16;;;27.75;27.09
30897;BME280;64229;52.246;21.054;2023-07-09T11:58:48;100981.50;;;27.73;26.91
30897;BME280;64229;52.246;21.054;2023-07-09T12:01:16;100971.28;;;27.70;27.14
30897;BME280;64229;52.246;21.054;2023-07-09T12:03:44;100969.16;;;27.63;27.23
30897;BME280;64229;52.246;21.054;2023-07-09T12:06:20;100979.28;;;27.79;27.51
30897;BME280;64229;52.246;21.054;2023-07-09T12:08:48;100975.50;;;27.87;27.66
30897;BME280;64229;52.246;21.054;2023-07-09T12:11:33;100978.25;;;27.87;27.23
30897;BME280;64229;52.246;21.054;2023-07-09T12:14:09;100968.78;;;27.84;27.36
30897;BME280;64229;52.246;21.054;2023-07-09T12:16:36;100953.38;;;27.76;27.09
30897;BME280;64229;52.246;21.054;2023-07-09T12:19:01;100962.03;;;27.78;28.48
30897;BME280;64229;52.246;21.054;2023-07-09T12:21:26;100962.06;;;27.82;27.43
30897;BME280;64229;52.246;21.054;2023-07-09T12:23:54;100952.31;;;27.84;27.52
30897;BME280;64229;52.246;21.054;2023-07-09T12:26:20;100952.81;;;27.90;27.20
30897;BME280;64229;52.246;21.054;2023-07-09T12:28:55;100952.09;;;27.93;27.95
30897;BME280;64229;52.246;21.054;2023-07-09T12:31:27;100947.28;;;28.09;27.88
30897;BME280;64229;52.246;21.054;2023-07-09T12:33:54;100951.28;;;28.15;27.69
30897;BME280;64229;52.246;21.054;2023-07-09T12:36:20;100952.81;;;28.13;27.10
30897;BME280;64229;52.246;21.054;2023-07-09T12:38:49;100952.38;;;28.11;27.44
30897;BME280;64229;52.246;21.054;2023-07-09T12:41:40;100945.00;;;28.15;27.73
30897;BME280;64229;52.246;21.054;2023-07-09T12:44:15;100934.34;;;28.10;27.09
30897;BME280;64229;52.246;21.054;2023-07-09T12:46:41;100948.06;;;28.10;28.11
30897;BME280;64229;52.246;21.054;2023-07-09T12:49:07;100947.28;;;28.09;27.90
30897;BME280;64229;52.246;21.054;2023-07-09T12:51:32;100951.22;;;28.12;27.86
30897;BME280;64229;52.246;21.054;2023-07-09T12:54:18;100945.59;;;28.05;27.36
30897;BME280;64229;52.246;21.054;2023-07-09T12:56:44;100952.94;;;27.97;27.39
30897;BME280;64229;52.246;21.054;2023-07-09T12:59:37;100930.69;;;27.79;27.43
30897;BME280;64229;52.246;21.054;2023-07-09T13:02:14;100935.88;;;27.84;27.75
30897;BME280;64229;52.246;21.054;2023-07-09T13:04:40;100946.16;;;27.91;28.49
30897;BME280;64229;52.246;21.054;2023-07-09T13:09:52;100932.81;;;27.89;28.01
30897;BME280;64229;52.246;21.054;2023-07-09T13:12:18;100938.06;;;27.98;27.73